Time;durP1;ratioP1;P1;durP2;ratioP2;P2;SDS_P1;SDS_P2;PMS_P1;PMS_P2;Temp;Humidity;BMP_temperature;BMP_pressure;BME280_temperature;BME280_humidity;BME280_pressure;Samples;Min_cycle;Max_cycle;Signal;HPM_P1;HPM_P2
2022/09/06 00:00:22;;;;;;;2.05;1.90;;;24.80;53.70;;;;;;5032433;28;20099;-59
2022/09/06 00:02:49;;;;;;;3.28;2.55;;;24.80;53.70;;;;;;5029371;28;20111;-59
2022/09/06 00:05:16;;;;;;;2.30;2.17;;;24.80;53.70;;;;;;5028450;28;20132;-59
2022/09/06 00:07:44;;;;;;;2.00;1.90;;;24.80;53.70;;;;;;5029105;28;20540;-59
2022/09/06 00:10:12;;;;;;;2.85;2.13;;;24.80;53.70;;;;;;5028704;28;20124;-59
2022/09/06 00:12:39;;;;;;;2.38;2.17;;;24.80;53.70;;;;;;5028209;28;20084;-59
2022/09/06 00:15:07;;;;;;;2.35;2.15;;;24.80;53.70;;;;;;5028173;28;20060;-59
2022/09/06 00:17:34;;;;;;;2.60;2.28;;;24.80;53.70;;;;;;5029048;28;20458;-59
2022/09/06 00:20:03;;;;;;;2.28;2.17;;;24.80;53.70;;;;;;5027966;28;20050;-59
2022/09/06 00:22:30;;;;;;;2.10;2.00;;;24.80;53.70;;;;;;5028864;28;20049;-59
2022/09/06 00:24:57;;;;;;;2.20;2.00;;;24.80;53.70;;;;;;5028057;28;20529;-59
2022/09/06 00:27:24;;;;;;;2.25;2.08;;;24.80;53.70;;;;;;5029416;28;20387;-59
2022/09/06 00:29:51;;;;;;;2.28;2.10;;;24.80;53.70;;;;;;5026980;28;20103;-59
2022/09/06 00:32:19;;;;;;;1.95;1.83;;;24.80;53.70;;;;;;5023869;28;20450;-59
2022/09/06 00:34:46;;;;;;;2.65;2.05;;;24.80;53.70;;;;;;5028726;28;20037;-58
2022/09/06 00:37:13;;;;;;;2.35;2.25;;;24.70;53.70;;;;;;5028121;28;20049;-59
2022/09/06 00:39:40;;;;;;;2.33;2.13;;;24.80;53.70;;;;;;5027656;28;20053;-59
2022/09/06 00:42:09;;;;;;;2.35;2.15;;;24.70;53.70;;;;;;5028284;28;20077;-59
2022/09/06 00:44:37;;;;;;;2.53;2.33;;;24.70;53.70;;;;;;5027998;28;20085;-59
2022/09/06 00:47:06;;;;;;;3.20;2.78;;;24.70;53.70;;;;;;5027434;28;20104;-59
2022/09/06 00:49:38;;;;;;;3.20;2.45;;;24.70;53.70;;;;;;5027971;28;20107;-59
2022/09/06 00:52:10;;;;;;;2.10;1.85;;;24.70;53.70;;;;;;5028644;28;20571;-59
2022/09/06 00:54:38;;;;;;;3.35;2.05;;;24.70;53.70;;;;;;5027906;28;20046;-59
2022/09/06 00:57:05;;;;;;;1.88;1.70;;;24.70;53.70;;;;;;5028459;28;20102;-59
2022/09/06 00:59:35;;;;;;;2.80;1.88;;;24.70;53.70;;;;;;5031784;28;20128;-58
2022/09/06 01:02:04;;;;;;;2.92;2.08;;;24.70;53.70;;;;;;5046562;28;20052;-60
2022/09/06 01:04:32;;;;;;;3.17;2.15;;;24.70;53.70;;;;;;5045405;28;20536;-59
2022/09/06 01:07:33;;;;;;;2.55;2.03;;;24.70;53.80;;;;;;5047312;28;20426;-59
2022/09/06 01:10:31;;;;;;;2.38;2.17;;;24.70;53.80;;;;;;5047551;28;20048;-59
2022/09/06 01:13:18;;;;;;;2.17;2.05;;;24.70;53.80;;;;;;5047687;28;20080;-59
2022/09/06 01:16:08;;;;;;;2.25;2.10;;;24.70;53.80;;;;;;5047406;28;20571;-58
2022/09/06 01:18:54;;;;;;;2.50;2.35;;;24.70;53.80;;;;;;5046861;28;20084;-58
2022/09/06 01:21:49;;;;;;;1.92;1.83;;;24.70;53.80;;;;;;5048041;28;20586;-59
2022/09/06 01:24:51;;;;;;;2.50;2.05;;;24.70;53.80;;;;;;5047804;28;20045;-59
2022/09/06 01:27:58;;;;;;;2.28;2.08;;;24.70;53.70;;;;;;5047171;28;20148;-59
2022/09/06 01:30:25;;;;;;;3.38;1.90;;;24.70;53.70;;;;;;5047184;28;20567;-59
2022/09/06 01:33:23;;;;;;;2.05;1.83;;;24.70;53.70;;;;;;5047243;28;20458;-59
2022/09/06 01:35:56;;;;;;;2.22;2.03;;;24.70;53.70;;;;;;5043127;28;20056;-59
2022/09/06 01:38:23;;;;;;;2.45;2.22;;;24.70;53.70;;;;;;5047836;28;20436;-59
2022/09/06 01:40:51;;;;;;;2.60;2.25;;;24.70;53.70;;;;;;5046512;28;20083;-59
2022/09/06 01:43:25;;;;;;;1.90;1.80;;;24.70;53.70;;;;;;5047517;28;20095;-59
2022/09/06 01:46:26;;;;;;;2.45;2.22;;;24.70;53.70;;;;;;5047526;28;20072;-59
2022/09/06 01:49:30;;;;;;;2.20;2.03;;;24.70;53.70;;;;;;5046744;28;20049;-58
2022/09/06 01:52:19;;;;;;;2.00;1.90;;;24.70;53.60;;;;;;5046209;28;20132;-59
2022/09/06 01:55:16;;;;;;;2.58;2.20;;;24.80;53.70;;;;;;5046149;28;20128;-59
2022/09/06 01:58:16;;;;;;;2.67;2.17;;;24.70;53.70;;;;;;5047470;28;20053;-58
2022/09/06 02:00:56;;;;;;;2.70;2.00;;;24.70;53.60;;;;;;5033956;28;20449;-59
2022/09/06 02:03:36;;;;;;;;;;;24.70;53.60;;;;;;5028047;28;20179;-59
2022/09/06 02:06:08;;;;;;;2.30;2.10;;;24.70;53.60;;;;;;5022918;28;19952;-59
2022/09/06 02:08:41;;;;;;;2.70;2.00;;;24.70;53.60;;;;;;5035184;28;20577;-59
2022/09/06 02:11:09;;;;;;;1.98;1.88;;;24.70;53.60;;;;;;5047654;28;20102;-59
2022/09/06 02:13:48;;;;;;;2.08;1.88;;;24.70;53.60;;;;;;5047506;28;20041;-59
2022/09/06 02:16:20;;;;;;;1.80;1.70;;;24.70;53.70;;;;;;5046943;28;20049;-59
2022/09/06 02:19:10;;;;;;;2.15;2.05;;;24.70;53.70;;;;;;5047409;28;20078;-59
2022/09/06 02:21:40;;;;;;;;;;;24.70;53.60;;;;;;5047810;28;20147;-59
2022/09/06 02:24:10;;;;;;;2.05;1.95;;;24.70;53.60;;;;;;5047745;28;20024;-59
2022/09/06 02:26:42;;;;;;;1.88;1.77;;;24.70;53.60;;;;;;5046659;28;20046;-58
2022/09/06 02:29:09;;;;;;;2.28;1.85;;;24.70;53.60;;;;;;5047612;28;20072;-59
2022/09/06 02:32:02;;;;;;;1.85;1.70;;;24.60;53.60;;;;;;5045752;28;20524;-59
2022/09/06 02:34:30;;;;;;;2.83;2.40;;;24.70;53.70;;;;;;5048447;28;20045;-59
2022/09/06 02:36:59;;;;;;;2.08;1.98;;;24.60;53.60;;;;;;5045892;28;20095;-59
2022/09/06 02:39:26;;;;;;;2.05;1.95;;;24.70;53.60;;;;;;5050726;28;20173;-59
2022/09/06 02:41:54;;;;;;;2.95;1.85;;;24.60;53.60;;;;;;5050609;28;20144;-58
2022/09/06 02:44:21;;;;;;;2.40;2.05;;;24.60;53.60;;;;;;5049162;28;20488;-58
2022/09/06 02:46:48;;;;;;;1.80;1.70;;;24.60;53.60;;;;;;5049838;28;20052;-59
2022/09/06 02:49:20;;;;;;;2.10;2.00;;;24.60;53.60;;;;;;5050239;28;20056;-59
2022/09/06 02:51:47;;;;;;;2.90;2.28;;;24.60;53.60;;;;;;5050282;28;20616;-59
2022/09/06 02:54:15;;;;;;;1.92;1.80;;;24.60;53.60;;;;;;5049213;28;20087;-59
2022/09/06 02:56:42;;;;;;;2.63;1.80;;;24.60;53.50;;;;;;5050182;28;20064;-59
2022/09/06 02:59:09;;;;;;;2.72;1.90;;;24.60;53.60;;;;;;5050479;28;20041;-60
2022/09/06 03:01:37;;;;;;;2.40;2.20;;;24.60;53.60;;;;;;5050050;28;20182;-59
2022/09/06 03:04:04;;;;;;;2.30;2.10;;;24.60;53.60;;;;;;5049813;28;20079;-59
2022/09/06 03:06:32;;;;;;;2.28;2.10;;;24.60;53.50;;;;;;5049826;28;20041;-59
2022/09/06 03:08:59;;;;;;;1.85;1.75;;;24.60;53.60;;;;;;5044468;28;20060;-59
2022/09/06 03:11:27;;;;;;;1.75;1.65;;;24.60;53.50;;;;;;5049754;28;20477;-59
2022/09/06 03:13:54;;;;;;;2.95;2.00;;;24.60;53.50;;;;;;5049783;28;20083;-59
2022/09/06 03:16:21;;;;;;;2.10;2.00;;;24.60;53.50;;;;;;5049845;28;20045;-59
2022/09/06 03:18:49;;;;;;;2.13;2.03;;;24.60;53.50;;;;;;5050042;28;20045;-59
2022/09/06 03:21:16;;;;;;;2.10;2.00;;;24.60;53.50;;;;;;5050703;28;20052;-59
2022/09/06 03:23:44;;;;;;;1.90;1.80;;;24.60;53.50;;;;;;5049559;28;20678;-59
2022/09/06 03:26:12;;;;;;;2.40;1.98;;;24.60;53.50;;;;;;5049458;28;20452;-59
2022/09/06 03:28:39;;;;;;;1.88;1.77;;;24.60;53.50;;;;;;5049791;28;20049;-59
2022/09/06 03:31:06;;;;;;;2.30;2.13;;;24.60;53.50;;;;;;5049562;28;20103;-59
2022/09/06 03:33:33;;;;;;;1.80;1.70;;;24.60;53.50;;;;;;5047921;28;20052;-59
2022/09/06 03:36:02;;;;;;;2.15;1.90;;;24.60;53.50;;;;;;5049990;28;20122;-58
2022/09/06 03:38:29;;;;;;;1.60;1.60;;;24.60;53.50;;;;;;5049658;28;20053;-59
2022/09/06 03:40:57;;;;;;;1.95;1.80;;;24.60;53.40;;;;;;5044855;28;20041;-59
2022/09/06 03:43:25;;;;;;;3.05;1.80;;;24.60;53.40;;;;;;5049402;28;20441;-59
2022/09/06 03:45:58;;;;;;;2.00;1.77;;;24.60;53.40;;;;;;5049080;28;20371;-59
2022/09/06 03:48:28;;;;;;;3.03;2.00;;;24.60;53.40;;;;;;5048659;28;20056;-59
2022/09/06 03:50:57;;;;;;;1.58;1.48;;;24.60;53.40;;;;;;5049325;28;20424;-59
2022/09/06 03:53:27;;;;;;;2.00;1.87;;;24.60;53.40;;;;;;5048870;28;20466;-59
2022/09/06 03:55:56;;;;;;;2.30;2.20;;;24.60;53.40;;;;;;5031332;28;20332;-59
2022/09/06 03:58:28;;;;;;;1.70;1.60;;;24.60;53.40;;;;;;5047985;28;20098;-59
2022/09/06 04:01:02;;;;;;;1.90;1.70;;;24.60;53.40;;;;;;5034464;28;20049;-59
2022/09/06 04:03:29;;;;;;;2.20;2.00;;;24.70;53.40;;;;;;5027708;28;20042;-59
2022/09/06 04:05:57;;;;;;;2.10;2.00;;;24.70;53.40;;;;;;5037852;28;20103;-59
2022/09/06 04:08:24;;;;;;;2.08;1.92;;;24.60;53.40;;;;;;5047464;28;20091;-59
2022/09/06 04:10:56;;;;;;;2.17;2.03;;;24.70;53.40;;;;;;5047523;28;20045;-59
2022/09/06 04:13:26;;;;;;;2.03;1.70;;;24.70;53.40;;;;;;5025461;28;20053;-59
2022/09/06 04:15:53;;;;;;;2.35;2.15;;;24.60;53.30;;;;;;5028480;28;20107;-59
2022/09/06 04:18:21;;;;;;;2.03;1.80;;;24.60;53.30;;;;;;5028645;28;20041;-59
2022/09/06 04:20:50;;;;;;;3.42;2.15;;;24.60;53.30;;;;;;5028806;28;20045;-59
2022/09/06 04:23:18;;;;;;;2.30;2.00;;;24.70;53.30;;;;;;5028900;28;20068;-59
2022/09/06 04:25:47;;;;;;;3.72;1.95;;;24.70;53.30;;;;;;5028448;28;20642;-59
2022/09/06 04:28:17;;;;;;;3.38;2.20;;;24.60;53.20;;;;;;5027042;28;20095;-59
2022/09/06 04:30:50;;;;;;;2.35;1.88;;;24.70;53.30;;;;;;5028100;28;20045;-59
2022/09/06 04:33:17;;;;;;;1.90;1.80;;;24.70;53.30;;;;;;5028772;28;20119;-59
2022/09/06 04:35:49;;;;;;;2.30;1.85;;;24.70;53.30;;;;;;5028368;28;20087;-59
2022/09/06 04:38:16;;;;;;;2.63;2.25;;;24.70;53.20;;;;;;5028053;28;20050;-59
2022/09/06 04:40:43;;;;;;;1.70;1.60;;;24.70;53.20;;;;;;5028393;28;20045;-59
2022/09/06 04:43:10;;;;;;;2.17;2.08;;;24.70;53.20;;;;;;5025015;28;20648;-59
2022/09/06 04:45:38;;;;;;;1.77;1.67;;;24.70;53.20;;;;;;5027817;28;20088;-60
2022/09/06 04:48:05;;;;;;;1.92;1.83;;;24.70;53.20;;;;;;5027896;28;20049;-59
2022/09/06 04:50:32;;;;;;;2.20;2.00;;;24.70;53.10;;;;;;5027909;28;20137;-59
2022/09/06 04:52:59;;;;;;;1.85;1.75;;;24.70;53.10;;;;;;5028502;28;20049;-59
2022/09/06 04:55:29;;;;;;;2.10;2.00;;;24.70;53.00;;;;;;5028080;28;20115;-59
2022/09/06 04:57:58;;;;;;;;;;;24.70;53.00;;;;;;5028731;28;20080;-59
2022/09/06 05:00:27;;;;;;;1.70;1.48;;;24.70;53.20;;;;;;5038032;28;19921;-59
2022/09/06 05:02:54;;;;;;;4.35;1.88;;;24.70;53.00;;;;;;5045936;28;20098;-59
2022/09/06 05:05:22;;;;;;;1.85;1.75;;;24.70;52.90;;;;;;5047421;28;20048;-59
2022/09/06 05:07:52;;;;;;;2.03;1.92;;;24.70;52.80;;;;;;5047675;28;20063;-59
2022/09/06 05:10:21;;;;;;;2.95;1.80;;;24.70;52.80;;;;;;5047459;28;20123;-59
2022/09/06 05:12:50;;;;;;;5.53;2.53;;;24.70;52.80;;;;;;5034923;28;20045;-59
2022/09/06 05:15:19;;;;;;;2.40;2.20;;;24.60;52.80;;;;;;5031524;28;20085;-58
2022/09/06 05:17:46;;;;;;;3.05;2.50;;;24.50;53.00;;;;;;5037020;28;20046;-59
2022/09/06 05:20:14;;;;;;;1.90;1.73;;;24.30;53.30;;;;;;5047890;28;20041;-59
2022/09/06 05:22:41;;;;;;;3.20;2.65;;;24.10;53.40;;;;;;5036985;28;20045;-59
2022/09/06 05:25:09;;;;;;;3.10;2.65;;;23.80;52.90;;;;;;5044267;28;20642;-59
2022/09/06 05:27:36;;;;;;;2.95;2.08;;;23.50;52.30;;;;;;5037200;28;20103;-59
2022/09/06 05:30:03;;;;;;;3.15;2.63;;;23.10;51.90;;;;;;5036789;28;20053;-58
2022/09/06 05:32:31;;;;;;;5.60;2.38;;;22.70;51.70;;;;;;5037269;28;20045;-59
2022/09/06 05:34:58;;;;;;;2.63;2.40;;;22.40;51.50;;;;;;5036379;28;20099;-59
2022/09/06 05:37:25;;;;;;;3.25;2.95;;;22.10;51.50;;;;;;5032720;28;20171;-59
2022/09/06 05:39:53;;;;;;;8.85;3.05;;;21.70;51.50;;;;;;5037235;28;20443;-59
2022/09/06 05:42:20;;;;;;;3.75;2.60;;;21.40;52.00;;;;;;5036952;28;20482;-60
2022/09/06 05:44:47;;;;;;;8.45;3.47;;;21.10;52.10;;;;;;5034713;28;21323;-61
2022/09/06 05:47:15;;;;;;;5.30;2.67;;;20.90;53.10;;;;;;5029023;28;20040;-59
2022/09/06 05:49:42;;;;;;;5.70;2.72;;;20.70;54.80;;;;;;5039532;28;20052;-60
2022/09/06 05:52:09;;;;;;;3.70;3.40;;;20.50;54.40;;;;;;5040445;28;20053;-60
2022/09/06 05:54:37;;;;;;;5.25;3.47;;;20.30;53.70;;;;;;5035848;28;20045;-61
2022/09/06 05:57:05;;;;;;;4.95;3.15;;;20.20;54.50;;;;;;5032762;28;20175;-61
2022/09/06 05:59:32;;;;;;;15.00;4.60;;;20.00;54.50;;;;;;5041183;28;20053;-61
2022/09/06 06:01:59;;;;;;;6.93;3.80;;;19.90;54.90;;;;;;5035329;28;20102;-61
2022/09/06 06:04:33;;;;;;;8.07;3.28;;;19.80;54.60;;;;;;5039759;28;20087;-61
2022/09/06 06:07:00;;;;;;;4.22;3.10;;;19.70;55.50;;;;;;5039304;28;20049;-63
2022/09/06 06:09:28;;;;;;;4.38;3.08;;;19.60;55.90;;;;;;5039359;28;20044;-61
2022/09/06 06:11:55;;;;;;;6.28;3.65;;;19.50;55.60;;;;;;5032094;28;20045;-62
2022/09/06 06:14:22;;;;;;;4.53;3.13;;;19.40;55.80;;;;;;5042295;28;20081;-61
2022/09/06 06:16:49;;;;;;;4.80;3.75;;;19.40;56.00;;;;;;5042212;28;20188;-61
2022/09/06 06:19:17;;;;;;;4.30;3.38;;;19.30;55.90;;;;;;5038528;28;20118;-61
2022/09/06 06:21:44;;;;;;;5.38;3.60;;;19.20;55.90;;;;;;5034802;28;20519;-62
2022/09/06 06:24:11;;;;;;;4.38;3.30;;;19.20;56.40;;;;;;5037556;28;20075;-61
2022/09/06 06:26:39;;;;;;;4.85;3.53;;;19.10;56.30;;;;;;5033144;28;20083;-59
2022/09/06 06:29:08;;;;;;;8.70;3.97;;;19.00;56.40;;;;;;5035228;28;20077;-59
2022/09/06 06:31:37;;;;;;;6.28;3.63;;;18.90;57.40;;;;;;5037428;28;20057;-58
2022/09/06 06:34:05;;;;;;;4.43;3.25;;;18.90;57.90;;;;;;5036645;28;20132;-60
2022/09/06 06:36:34;;;;;;;5.80;3.28;;;18.90;57.20;;;;;;5036826;28;20091;-60
2022/09/06 06:39:03;;;;;;;4.65;3.60;;;18.80;57.80;;;;;;5032784;28;20141;-60
2022/09/06 06:41:31;;;;;;;6.57;3.85;;;18.80;58.20;;;;;;5036919;28;20041;-59
2022/09/06 06:44:00;;;;;;;6.32;3.83;;;18.80;57.60;;;;;;5039737;28;20056;-60
2022/09/06 06:46:30;;;;;;;3.95;3.60;;;18.70;57.70;;;;;;5042204;28;20443;-60
2022/09/06 06:48:57;;;;;;;6.85;3.60;;;18.70;58.10;;;;;;5038362;28;20068;-60
2022/09/06 06:51:27;;;;;;;6.47;3.40;;;18.60;58.30;;;;;;5036332;28;20044;-60
2022/09/06 06:53:58;;;;;;;4.63;3.13;;;18.60;57.40;;;;;;5040236;28;20082;-59
2022/09/06 06:56:28;;;;;;;4.35;3.88;;;18.60;57.60;;;;;;5037542;28;20304;-61
2022/09/06 06:58:58;;;;;;;6.87;3.20;;;18.60;57.70;;;;;;5034953;28;20116;-60
2022/09/06 07:01:27;;;;;;;5.77;3.10;;;18.60;57.90;;;;;;5035910;28;20612;-61
2022/09/06 07:03:55;;;;;;;5.50;3.45;;;18.50;57.80;;;;;;5031748;28;20338;-60
2022/09/06 07:06:23;;;;;;;7.45;3.58;;;18.60;58.00;;;;;;5038236;28;20061;-59
2022/09/06 07:09:10;;;;;;;5.80;4.00;;;18.50;58.10;;;;;;5036999;28;20055;-60
2022/09/06 07:11:37;;;;;;;5.75;3.75;;;18.50;58.20;;;;;;5036872;28;20106;-60
2022/09/06 07:14:04;;;;;;;3.78;3.45;;;18.50;58.10;;;;;;5038003;28;20049;-60
2022/09/06 07:16:32;;;;;;;3.92;3.30;;;18.50;58.50;;;;;;5037556;28;20413;-60
2022/09/06 07:18:59;;;;;;;4.35;3.50;;;18.60;58.60;;;;;;5039038;28;20057;-59
2022/09/06 07:21:27;;;;;;;11.57;3.70;;;18.60;58.30;;;;;;5034849;28;20049;-58
2022/09/06 07:24:03;;;;;;;8.07;3.58;;;18.60;58.60;;;;;;5047124;28;20056;-61
2022/09/06 07:26:36;;;;;;;4.55;3.75;;;18.50;58.40;;;;;;5049432;28;20084;-60
2022/09/06 07:29:06;;;;;;;6.35;3.40;;;18.50;59.20;;;;;;5045587;28;20059;-60
2022/09/06 07:31:34;;;;;;;4.85;3.70;;;18.50;59.50;;;;;;5040139;28;21267;-61
2022/09/06 07:34:21;;;;;;;7.75;3.78;;;18.50;59.70;;;;;;5042014;28;22099;-58
2022/09/06 07:36:52;;;;;;;6.60;3.83;;;18.50;59.60;;;;;;5037717;28;20040;-58
2022/09/06 07:39:20;;;;;;;7.22;3.90;;;18.50;59.60;;;;;;5042378;28;20048;-58
2022/09/06 07:41:48;;;;;;;3.80;3.45;;;18.50;60.10;;;;;;5038462;28;20095;-60
2022/09/06 07:44:15;;;;;;;8.75;4.57;;;18.50;60.00;;;;;;5039721;28;20052;-58
2022/09/06 07:46:42;;;;;;;3.78;3.38;;;18.50;60.60;;;;;;5039554;28;20115;-59
2022/09/06 07:49:10;;;;;;;4.15;3.28;;;18.50;60.40;;;;;;5041113;28;20527;-58
2022/09/06 07:51:37;;;;;;;8.88;4.45;;;18.50;60.50;;;;;;5041927;28;20041;-58
2022/09/06 07:54:05;;;;;;;7.57;3.90;;;18.50;60.50;;;;;;5034686;28;20461;-57
2022/09/06 07:56:52;;;;;;;8.82;3.97;;;18.50;60.40;;;;;;5038787;28;20084;-58
2022/09/06 07:59:20;;;;;;;15.68;4.57;;;18.60;60.80;;;;;;5034528;28;20104;-57
2022/09/06 08:01:48;;;;;;;4.70;3.95;;;18.60;60.80;;;;;;5036313;28;20052;-58
2022/09/06 08:04:16;;;;;;;7.70;3.85;;;18.60;60.60;;;;;;5041837;28;20044;-58
2022/09/06 08:06:47;;;;;;;4.07;3.35;;;18.70;60.80;;;;;;5037722;28;20046;-58
2022/09/06 08:09:34;;;;;;;4.95;3.38;;;18.70;60.60;;;;;;5034498;28;20055;-58
2022/09/06 08:12:05;;;;;;;7.72;3.35;;;18.70;60.80;;;;;;5034860;28;20464;-59
2022/09/06 08:14:34;;;;;;;4.18;3.33;;;18.80;60.80;;;;;;5040434;28;20064;-59
2022/09/06 08:17:02;;;;;;;4.80;3.25;;;18.80;60.70;;;;;;5040492;28;20061;-58
2022/09/06 08:19:29;;;;;;;5.30;3.60;;;18.80;61.10;;;;;;5041487;28;20069;-59
2022/09/06 08:21:56;;;;;;;4.60;3.47;;;18.90;61.30;;;;;;5035526;28;20111;-58
2022/09/06 08:24:24;;;;;;;7.57;3.33;;;18.90;60.60;;;;;;5031258;28;20102;-59
2022/09/06 08:26:52;;;;;;;4.57;3.53;;;18.90;60.70;;;;;;5038220;28;20041;-60
2022/09/06 08:29:19;;;;;;;4.13;3.40;;;19.00;60.90;;;;;;5037885;28;20060;-60
2022/09/06 08:31:47;;;;;;;4.63;3.40;;;19.10;60.80;;;;;;5035688;28;20542;-59
2022/09/06 08:34:14;;;;;;;6.93;3.75;;;19.10;60.50;;;;;;5040209;28;20076;-59
2022/09/06 08:36:44;;;;;;;5.53;3.40;;;19.20;60.00;;;;;;5038226;28;20041;-59
2022/09/06 08:39:13;;;;;;;4.43;3.30;;;19.20;60.10;;;;;;5034194;28;20072;-59
2022/09/06 08:41:57;;;;;;;5.93;3.85;;;19.30;60.00;;;;;;5033471;28;20044;-60
2022/09/06 08:44:39;;;;;;;3.55;3.25;;;19.30;60.10;;;;;;5029097;28;20131;-59
2022/09/06 08:47:24;;;;;;;3.25;2.95;;;19.30;60.40;;;;;;5036979;28;20041;-59
2022/09/06 08:50:05;;;;;;;3.50;3.20;;;19.30;60.40;;;;;;5034560;28;20052;-59
2022/09/06 08:53:00;;;;;;;3.05;2.85;;;19.40;60.20;;;;;;5030846;28;20846;-59
2022/09/06 08:55:53;;;;;;;3.40;3.10;;;19.40;60.50;;;;;;5034902;28;20409;-60
2022/09/06 08:59:00;;;;;;;3.80;3.40;;;19.50;60.60;;;;;;5032498;28;20053;-59
2022/09/06 09:01:51;;;;;;;3.80;3.50;;;19.60;60.30;;;;;;5020559;28;20867;-60
2022/09/06 09:04:23;;;;;;;3.40;3.10;;;19.60;60.30;;;;;;5026923;28;20048;-58
2022/09/06 09:06:57;;;;;;;4.32;3.25;;;19.70;60.50;;;;;;5027121;28;20513;-59
2022/09/06 09:09:29;;;;;;;3.45;2.97;;;19.80;60.10;;;;;;5035855;28;20076;-60
2022/09/06 09:11:58;;;;;;;7.53;3.85;;;19.80;60.90;;;;;;5035863;28;20124;-58
2022/09/06 09:14:34;;;;;;;3.45;2.88;;;19.80;60.20;;;;;;5035916;28;20436;-59
2022/09/06 09:17:06;;;;;;;3.50;2.63;;;19.80;60.50;;;;;;5036300;28;20074;-58
2022/09/06 09:19:36;;;;;;;5.43;3.15;;;19.80;60.20;;;;;;5036667;28;20053;-59
2022/09/06 09:22:03;;;;;;;3.88;2.90;;;19.80;60.40;;;;;;5037200;28;20166;-59
2022/09/06 09:24:31;;;;;;;3.00;2.80;;;19.80;60.30;;;;;;5041203;28;20057;-59
2022/09/06 09:27:10;;;;;;;3.40;3.10;;;19.80;60.50;;;;;;5027745;28;20041;-60
2022/09/06 09:30:00;;;;;;;3.08;2.78;;;19.80;60.40;;;;;;5026201;28;20049;-60
2022/09/06 09:32:48;;;;;;;3.65;3.35;;;19.80;60.70;;;;;;5026089;28;20147;-59
2022/09/06 09:35:30;;;;;;;2.85;2.65;;;19.80;60.80;;;;;;5027096;28;20382;-58
2022/09/06 09:38:07;;;;;;;3.75;3.03;;;19.80;61.30;;;;;;5033951;28;20098;-59
2022/09/06 09:40:58;;;;;;;3.20;3.00;;;19.90;61.20;;;;;;5033049;28;20053;-60
2022/09/06 09:43:33;;;;;;;2.90;2.67;;;19.90;61.30;;;;;;5039671;28;20046;-60
2022/09/06 09:46:29;;;;;;;3.65;3.05;;;20.00;60.90;;;;;;5039609;28;20413;-60
2022/09/06 09:49:03;;;;;;;3.35;2.95;;;20.00;60.50;;;;;;5039231;28;20053;-60
2022/09/06 09:51:40;;;;;;;3.08;2.78;;;20.00;60.30;;;;;;5039428;28;20045;-59
2022/09/06 09:54:10;;;;;;;4.90;3.13;;;20.00;60.30;;;;;;5032770;28;20146;-58
2022/09/06 09:56:50;;;;;;;3.08;2.88;;;20.00;59.50;;;;;;5038916;28;20095;-59
2022/09/06 09:59:46;;;;;;;3.30;2.80;;;20.00;59.50;;;;;;5036042;28;20548;-59
2022/09/06 10:02:29;;;;;;;3.13;2.83;;;20.10;59.00;;;;;;5040020;28;20482;-59
2022/09/06 10:05:17;;;;;;;3.00;2.80;;;20.00;59.00;;;;;;5041812;28;20057;-58
2022/09/06 10:07:54;;;;;;;2.80;2.60;;;20.00;59.40;;;;;;5035933;28;20072;-58
2022/09/06 10:10:28;;;;;;;3.00;2.78;;;20.00;58.70;;;;;;5044987;28;20045;-59
2022/09/06 10:13:20;;;;;;;3.28;3.03;;;20.00;58.60;;;;;;5039904;28;20560;-59
2022/09/06 10:15:49;;;;;;;3.90;3.28;;;20.00;58.30;;;;;;5035541;28;21460;-59
2022/09/06 10:18:43;;;;;;;3.22;2.70;;;19.90;58.30;;;;;;5039583;28;20362;-60
2022/09/06 10:21:16;;;;;;;3.20;2.90;;;20.00;58.20;;;;;;5042432;28;20088;-60
2022/09/06 10:24:07;;;;;;;3.20;2.90;;;19.90;59.10;;;;;;5046613;28;20493;-61
2022/09/06 10:26:58;;;;;;;5.68;2.97;;;19.90;58.80;;;;;;5042570;28;20044;-61
2022/09/06 10:29:39;;;;;;;8.93;2.95;;;20.00;58.60;;;;;;5044382;28;20053;-61
2022/09/06 10:32:41;;;;;;;3.55;2.83;;;20.00;58.30;;;;;;5039408;28;20540;-61
2022/09/06 10:35:30;;;;;;;2.95;2.53;;;19.90;58.10;;;;;;5042048;28;20327;-61
2022/09/06 10:38:37;;;;;;;3.33;2.67;;;19.90;58.20;;;;;;5037604;28;20076;-60
2022/09/06 10:41:32;;;;;;;3.70;3.00;;;19.90;58.00;;;;;;5039976;28;20099;-60
2022/09/06 10:44:39;;;;;;;3.40;2.63;;;20.00;57.80;;;;;;5042728;28;20056;-60
2022/09/06 10:47:12;;;;;;;3.20;2.42;;;19.90;57.70;;;;;;5045270;28;20496;-60
2022/09/06 10:49:47;;;;;;;2.80;2.60;;;19.90;58.00;;;;;;5045191;28;20128;-61
2022/09/06 10:52:25;;;;;;;3.25;2.95;;;19.90;58.20;;;;;;5044605;28;20041;-59
2022/09/06 10:54:56;;;;;;;5.00;3.95;;;19.90;57.90;;;;;;5045583;28;20087;-60
2022/09/06 10:57:40;;;;;;;3.20;2.92;;;19.90;58.10;;;;;;5045132;28;20095;-60
2022/09/06 11:00:27;;;;;;;3.17;2.88;;;19.90;58.20;;;;;;5037430;28;20051;-60
2022/09/06 11:03:09;;;;;;;2.97;2.67;;;19.90;58.00;;;;;;5035149;28;20525;-60
2022/09/06 11:06:05;;;;;;;3.42;3.13;;;19.90;57.90;;;;;;5041081;28;20796;-60
2022/09/06 11:08:53;;;;;;;6.10;3.00;;;19.90;58.20;;;;;;5036406;28;20500;-60
2022/09/06 11:11:41;;;;;;;3.13;2.88;;;19.90;58.00;;;;;;5039199;28;20057;-59
2022/09/06 11:14:12;;;;;;;3.40;2.88;;;19.80;58.10;;;;;;5039353;28;20061;-60
2022/09/06 11:16:52;;;;;;;3.20;2.90;;;19.80;58.30;;;;;;5037891;28;20041;-59
2022/09/06 11:19:29;;;;;;;3.50;3.20;;;19.80;59.00;;;;;;5042180;28;20386;-59
2022/09/06 11:22:24;;;;;;;3.00;2.80;;;19.90;59.00;;;;;;5043105;28;20454;-59
2022/09/06 11:25:26;;;;;;;3.00;2.80;;;20.00;58.80;;;;;;5040792;28;20052;-59
2022/09/06 11:27:57;;;;;;;2.47;2.28;;;20.00;58.40;;;;;;5035798;28;20485;-59
2022/09/06 11:30:26;;;;;;;3.33;2.90;;;20.00;58.40;;;;;;5044594;28;20516;-58
2022/09/06 11:33:19;;;;;;;3.40;3.10;;;20.00;58.80;;;;;;5039135;28;20115;-58
2022/09/06 11:35:47;;;;;;;2.97;2.78;;;20.00;59.00;;;;;;5031692;28;20454;-60
2022/09/06 11:38:23;;;;;;;3.08;2.40;;;20.00;58.80;;;;;;5041948;28;20068;-59
2022/09/06 11:41:03;;;;;;;5.32;3.53;;;20.00;58.60;;;;;;5038856;28;20140;-59
2022/09/06 11:43:47;;;;;;;4.95;2.85;;;20.00;58.60;;;;;;5035352;28;20048;-58
2022/09/06 11:46:54;;;;;;;2.97;2.75;;;20.00;58.70;;;;;;5035471;28;20075;-59
2022/09/06 11:49:31;;;;;;;6.97;3.50;;;20.00;58.80;;;;;;5040284;28;20141;-58
2022/09/06 11:51:59;;;;;;;4.85;3.53;;;20.00;59.10;;;;;;5041578;28;20418;-59
2022/09/06 11:54:39;;;;;;;3.53;3.22;;;20.00;59.20;;;;;;5038808;28;20048;-59
2022/09/06 11:57:16;;;;;;;4.25;3.92;;;20.00;59.30;;;;;;5033650;28;20139;-59
2022/09/06 11:59:59;;;;;;;3.45;3.15;;;20.00;59.10;;;;;;5028950;28;20060;-60
2022/09/06 12:02:37;;;;;;;2.90;2.70;;;20.00;59.40;;;;;;5035274;28;20110;-59
2022/09/06 12:05:10;;;;;;;3.35;3.08;;;20.00;59.40;;;;;;5040602;28;20110;-59
2022/09/06 12:07:58;;;;;;;3.17;2.88;;;20.00;59.30;;;;;;5033934;28;20091;-61
2022/09/06 12:10:57;;;;;;;3.83;3.03;;;20.10;59.20;;;;;;5038405;28;20073;-59
2022/09/06 12:13:47;;;;;;;3.30;3.00;;;20.10;58.80;;;;;;5054109;28;20515;-59
2022/09/06 12:16:16;;;;;;;3.63;3.22;;;20.10;58.60;;;;;;5042243;28;20554;-59
2022/09/06 12:18:54;;;;;;;2.67;2.47;;;20.10;58.70;;;;;;5041067;28;20571;-58
2022/09/06 12:21:45;;;;;;;3.72;3.30;;;20.20;58.80;;;;;;5041901;28;20107;-59
2022/09/06 12:24:53;;;;;;;2.80;2.60;;;20.10;58.30;;;;;;5039065;28;20053;-59
2022/09/06 12:27:25;;;;;;;3.33;3.05;;;20.20;58.50;;;;;;5042843;28;20052;-59
2022/09/06 12:29:59;;;;;;;2.90;2.70;;;20.20;58.60;;;;;;5037058;28;20710;-60
2022/09/06 12:32:39;;;;;;;3.15;2.85;;;20.30;58.60;;;;;;5030625;28;20048;-61
2022/09/06 12:35:19;;;;;;;4.47;3.75;;;20.30;58.40;;;;;;5027333;28;20065;-60
2022/09/06 12:38:11;;;;;;;2.92;2.72;;;20.30;58.20;;;;;;5025931;28;20795;-59
2022/09/06 12:40:44;;;;;;;3.38;3.08;;;20.40;58.60;;;;;;5032048;28;20080;-59
2022/09/06 12:43:13;;;;;;;3.53;3.03;;;20.30;58.60;;;;;;5028972;28;20076;-58
2022/09/06 12:45:50;;;;;;;3.10;2.90;;;20.40;58.80;;;;;;5031540;28;20072;-58
2022/09/06 12:48:27;;;;;;;4.47;3.08;;;20.40;59.10;;;;;;5031713;28;20080;-58
2022/09/06 12:51:04;;;;;;;97.20;18.83;;;20.40;59.20;;;;;;5037151;28;20049;-59
2022/09/06 12:53:33;;;;;;;53.70;11.88;;;20.40;59.20;;;;;;5036254;28;20438;-59
2022/09/06 12:56:11;;;;;;;47.67;12.30;;;20.40;59.40;;;;;;5036241;28;20067;-62
2022/09/06 12:58:39;;;;;;;45.55;10.93;;;20.50;59.40;;;;;;5032287;28;20483;-60
2022/09/06 13:01:18;;;;;;;37.88;9.82;;;20.50;60.20;;;;;;5029358;28;20056;-60
2022/09/06 13:03:57;;;;;;;39.13;9.02;;;20.50;59.30;;;;;;5034823;28;20095;-59
2022/09/06 13:06:26;;;;;;;31.55;9.07;;;20.50;59.30;;;;;;5036636;28;20044;-60
2022/09/06 13:08:56;;;;;;;20.15;7.13;;;20.50;59.30;;;;;;5033429;28;20493;-60
2022/09/06 13:11:31;;;;;;;22.88;7.28;;;20.50;59.80;;;;;;5034199;28;20037;-59
2022/09/06 13:13:58;;;;;;;17.17;6.07;;;20.50;59.60;;;;;;5039103;28;20044;-61
2022/09/06 13:16:31;;;;;;;16.23;5.90;;;20.50;59.60;;;;;;5041069;28;20053;-60
2022/09/06 13:19:15;;;;;;;15.88;6.05;;;20.50;59.70;;;;;;5038658;28;20056;-60
2022/09/06 13:21:44;;;;;;;14.23;5.95;;;20.50;59.60;;;;;;5042985;28;20106;-60
2022/09/06 13:24:22;;;;;;;10.18;4.82;;;20.50;59.40;;;;;;5040273;28;20488;-60